64th Annual Mobil 1 Twelve Hours of Sebring Fueled by Fresh From Florida Sebring International Raceway

2016 Mar 18 28717468Image # 28717468 16-18 March, 2016, Sebring, Florida USA 55, Mazda, P, Jonathan Bomarito, Tristan Nunez, Spencer Pigot ©2016, Richard Dole LAT Photo USA 3/18/2016 10:16:47 AM

64th Annual Mobil 1 Twelve Hours of Sebring Fueled by Fresh From FloridaSebring International Raceway / 3.74 miles March 16 – 19, 2016 / Sebring, Florida IMSA WeatherTech SportsCar Championship

2016 Mar 18 28717483Image # 2871748316-18 March, 2016, Sebring, Florida USA 97, BMW, M6 GT3, GTD, Michael Marsal, Markus Palttala, Jesse Krohn ©2016, Richard Dole LAT Photo USA 3/18/2016 10:16:22 AM

Television Broadcast:
10:30 AM ET 3/19/2016 FOX Sports 1
12:00 PM ET 3/19/2016 FOX Sports 2
7:00 PM ET 3/19/2016 IMSA
10:00 PM ET 3/20/2016 FOX Sports 2

Live Steaming: http://www.imsa.com/camera/imsatv

2016 Mar 18 28717498Image # 28717498 16-18 March, 2016, Sebring, Florida USA 100, BMW, F13 M6, GTLM, Lucas Luhr, John Edwards, Kuno Wittmer ©2016, Richard Dole LAT Photo USA 3/18/2016 9:28:07 AM

Classes

Prototype (P): Combining Daytona Prototypes, LMP2 and DeltaWing cars, the Prototype class features the fastest and most technologically advanced sports cars in North America, which are capable of speeds of 200 mph.

Prototype Challenge (PC): Prototype Challenge is a spec class featuring open top race cars and technology such as carbon fiber chassis, carbon brakes and a sequential gearbox.

GT Le Mans (GTLM): GT Le Mans machines are the most elite and fastest GT cars on the track, but are still based on production models. A true proving ground for leading manufacturers, GTLM cars are capable of speeds in excess of 180 mph.

GT Daytona (GTD): GT Daytona cars are the second fastest of the GT classes and are enhanced (not defined by) technology.

Qualifying

Position Class Position Car No Class Diff Laps Best Drivers Time Speed In Lap Make

1 1 60 P Pew/Negri Jr./Pla 1:51.217 121.061 5 Honda HPD Ligier JS P2 7
2 2 2 P Sharp/Brown/van Overbeek/Derani 1:51.391 120.872 6 Honda HPD Ligier JS P2 0.174 8
3 3 31 P Cameron/Curran/Pruett 1:51.943 120.275 7 Chevrolet Corvette DP 0.726 8
4 4 5 P Barbosa/Fittipaldi/Albuquerque/Pruett 1:52.205 119.995 5 Chevrolet Corvette DP 0.988 7
5 5 55 P Bomarito/Nunez/Pigot 1:52.951 119.202 4 Mazda Prototype 1.734 6
6 6 90 P Goossens/Dalziel/Hunter-Reay 1:53.185 118.956 6 Chevrolet Corvette DP 1.968 8
7 7 70 P T.Long/Joel.Miller/Devlin/Ihara 1:53.513 118.612 3 Mazda Prototype 2.296 6
8 8 10 P R.Taylor/J.Taylor/Angelelli/Barrichello 1:53.576 118.546 5 Chevrolet Corvette DP 2.359 8
9 9 81 P Hedman/Lapierre/Minassian 1:54.171 117.928 6 Nissan Oreca 05 2.954 7
10 10 24 P C.de Quesada/Morad/Lawrence/D.Farn 1:54.193 117.906 3 BMW Power Riley DP 2.976 6
11 11 0 P Legge/Rayhall/Meyrick 1:54.274 117.822 8 DeltaWing DWC13 3.057 8
12 1 54 PC Bennett/Braun/Wilkins 1:54.910 117.170 4 ORECA FLM09 3.693 7
13 2 52 PC Kimber-Smith/J.Gutierrez/Alon 1:55.843 116.226 4 ORECA FLM09 4.626 9
14 3 20 PC Mowlem/Drumwright/R.Lewis/Yount 1:56.661 115.411 8 ORECA FLM09 5.444 9
15 4 38 PC French/Marcelli/Jo.Norman 1:57.189 114.891 6 ORECA FLM09 5.972 7
16 5 8 PC Popow/van der Zande/Heinemeier Han 1:57.241 114.840 8 ORECA FLM09 6.024 9
17 12 50 P Pace/DeFoor/Hinton/Schroeder 1:57.422 114.663 6 BMW Power Riley DP 6.205 7
18 6 85 PC Goikhberg/C.Miller/Simpson/Koch 1:57.630 114.461 4 ORECA FLM09 6.413 5
19 7 88 PC Johnston/Engel/Lyons 1:58.218 113.891 7 ORECA FLM09 7.001 9
20 1 25 GTLM Auberlen/Werner/Spengler † 1:58.402 113.714 3 BMW M6 GTLM 7.185 4
21 2 100 GTLM J.Edwards/Luhr/Wittmer 1:58.592 113.532 2 BMW M6 GTLM 7.375 4
22 3 68 GTLM Pier Guidi/Serra/Bertolini 1:58.637 113.489 4 Ferrari 488 GTE 7.420 5
23 4 67 GTLM Briscoe/Westbrook/Dixon 1:58.708 113.421 3 Ford GT 7.491 4
24 5 3 GTLM Garcia/Magnussen/Rockenfeller 1:58.856 113.280 5 Chevrolet Corvette C7.R 7.639 7
25 6 4 GTLM Gavin/Milner/Fassler 1:58.878 113.259 5 Chevrolet Corvette C7.R 7.661 6
26 7 911 GTLM Pilet/Tandy/Estre 1:59.009 113.134 6 Porsche 911 RSR 7.792 7
27 8 62 GTLM Fisichella/Vilander/Rigon 1:59.020 113.124 5 Ferrari 488 GTE 7.803 7
28 9 66 GTLM Hand/D.Müller/Bourdais 1:59.053 113.092 2 Ford GT 7.836 3
29 10 912 GTLM Bamber/Makowiecki/Christensen 1:59.170 112.981 3 Porsche 911 RSR
30 1 63 GTD Nielsen/Balzan/Segal † 2:02.350 110.045 5 Ferrari 488 GT3 11.133 6
31 2 33 GTD Keating/J.Bleekemolen/M.Miller 2:02.386 110.013 5 Dodge Viper GT3-R 11.169 7
32 3 96 GTD Curtis/Klingmann/Freiberg 2:02.660 109.767 5 BMW M6 GT3 11.443 7
33 4 23 GTD M.Farnbacher/Riberas/I.James 2:03.037 109.430 4 Porsche 911 GT3 R 11.820 7
34 5 22 GTD MacNeil/L.Keen/Jeannette 2:03.241 109.249 5 Porsche 911 GT3 R 12.024 7
35 6 73 GTD Lindsey/Bergmeister/M.McMurry/Heyle 2:03.284 109.211 4 Porsche 911 GT3 R 12.067 7
36 7 51 GTD Cressoni/Giammaria/Mann 2:03.340 109.162 5 Ferrari 458 12.123 7
37 8 16 GTD Pumpelly/C.Lewis/Carter 2:03.455 109.060 5 Lamborghini Huracán GT3 12.238 6
38 9 97 GTD Marsal/Palttala/J.Krohn 2:03.625 108.910 3 BMW M6 GT3 12.408 6
39 10 21 GTD Ehret/Zöchling 2:03.822 108.737 6 Lamborghini Huracán GT3 12.605 7
40 11 9 GTD Aschenbach/M.Bell/von Moltke 2:03.856 108.707 6 Audi R8 LMS GT3 12.639 7
41 12 11 GTD Sweedler/To.Bell/Antinucci 2:03.861 108.702 3 Lamborghini Huracán GT3 12.644 8
42 13 27 GTD Ruberti/Sbirrazzuoli/Babini/Persiani 2:03.933 108.639 3 Lamborghini Huracán GT3 12.716 7
43 14 98 GTD Dalla Lana/Lamy/Lauda/Stanaway 2:04.204 108.402 3 Aston Martin Vantage GT3 12.987 5
44 15 48 GTD B.Miller/Sellers/Ma.Snow 2:04.260 108.353 5 Lamborghini Huracán GT3 13.043 7
45 16 28 GTD Borcheller/Konrad/Brück/Webster 2:04.302 108.317 6 Lamborghini Huracán GT3 13.085 8
46 17 44 GTD Potter/Lally/Seefried 2:04.857 107.835 5 Audi R8 LMS GT3 13.640 6
47 18 540 GTD Pappas/Catsburg/P.Long/Pilgrim 2:07.095 105.937 5 Porsche 911 GT3 R 15.878 7
48 19 45 GTD T.Krohn/Jonsson/Kaffer 2:07.338 105.734 5 Audi R8 LMS Ultra 16.121 6
49 20 6 GTD Liddell/A.Davis/De Phillippi -.— 0 Audi R8 LMS GT3

Fastest Drivers:
P Olivier Pla
GTLM Bill Auberlen
PC Colin Braun
GTD Jeff Segal

Graphics & Photos Courtesy of IMSA

IMSA
Website: http://www.imsa.com/

Leave a Reply